• Join FlightAware (Why Join?)
  • Login
  • US Flag 
05:29PM EST


 

Airport Tracker/Info


-or-


 

Live Flight TrackerFlight Track Log ✈ N111SX ✈ 29-Jul-2013 ✈ KGRB - KPTK

Flight Track Log - Related Links

Times and Time Zones

All times are in EDT time to prevent confusion due to time zone crossing. See the N111SX flight status page for this flight to view local times or setup timezone preferences in your user account.

Time Position Orientation Groundspeed Altitude Reporting Facility
EDT Latitude Longitude Course Direction KTS MPH feet Rate Location/Type
07:08PM 44.4594 -88.0725 100° East 139 160 2,800  Level Minneapolis Center
07:09PM 44.4472 -88.0267 110° East 125 144 3,500 660 Climbing Minneapolis Center
07:10PM 44.4361 -87.9858 111° Southeast 119 137 4,200 720 Climbing Minneapolis Center
07:11PM 44.4242 -87.9397 110° East 124 143 5,000 780 Climbing Minneapolis Center
07:12PM 44.3498 -87.7520 111° Southeast  Level Estimated
07:12PM 44.4103 -87.8844 109° East 128 147 5,900  Level Minneapolis Center
07:13PM 44.3414 -87.6827 100° East  Level FlightAware Approximate
07:13PM 44.3972 -87.8344 110° East 133 153 6,600  Level Minneapolis Center
07:14PM 44.3842 -87.7858 111° Southeast 134 154 7,300 660 Climbing Minneapolis Center
07:15PM 44.3703 -87.7344 111° Southeast 138 159 8,000 600 Climbing Minneapolis Center
07:16PM 44.3561 -87.6817 111° Southeast 144 166 8,600 660 Climbing Minneapolis Center
07:17PM 44.3397 -87.6192 110° East 146 168 9,500 720 Climbing Minneapolis Center
07:19PM 44.3253 -87.5669 111° Southeast 144 166 10,200 600 Climbing Minneapolis Center
07:20PM 44.3117 -87.5150 110° East 142 163 10,800 600 Climbing Minneapolis Center
07:21PM 44.2958 -87.4625 113° Southeast 145 167 11,500 600 Climbing Minneapolis Center
07:22PM 44.2764 -87.4081 116° Southeast 154 177 12,100 600 Climbing Minneapolis Center
07:23PM 44.2528 -87.3456 118° Southeast 157 181 12,800 600 Climbing Minneapolis Center
07:24PM 44.2322 -87.2883 117° Southeast 163 188 13,400 480 Climbing Minneapolis Center
07:25PM 44.2150 -87.2400 116° Southeast 165 190 13,900 600 Climbing Minneapolis Center
07:27PM 44.1633 -87.1164 120° Southeast 176 203 15,300 600 Climbing Minneapolis Center
07:28PM 44.1319 -87.0639 130° Southeast 178 205 15,900 600 Climbing Minneapolis Center
07:29PM 44.0950 -86.9992 128° Southeast 178 205 16,600 600 Climbing Minneapolis Center
07:30PM 44.0642 -86.9472 130° Southeast 177 204 17,200 540 Climbing Minneapolis Center
07:31PM 44.0333 -86.8919 128° Southeast 179 206 17,800 480 Climbing Minneapolis Center
07:32PM 44.0017 -86.8369 129° Southeast 182 209 18,200 420 Climbing Minneapolis Center
07:33PM 43.9686 -86.7828 130° Southeast 183 211 18,700 300 Climbing Minneapolis Center
07:34PM 43.9344 -86.7225 128° Southeast 194 223 18,900 120 Climbing Minneapolis Center
07:35PM 43.8903 -86.6489 130° Southeast 206 237 19,000  Climbing Minneapolis Center
07:36PM 43.8539 -86.5853 128° Southeast 210 242 19,000  Level Minneapolis Center
07:37PM 43.8169 -86.5194 128° Southeast 216 249 19,000  Level Minneapolis Center
07:38PM 43.7783 -86.4569 131° Southeast 214 246 19,000  Level Minneapolis Center
07:39PM 43.7408 -86.3908 128° Southeast 218 251 19,000  Level Minneapolis Center
07:40PM 43.7033 -86.3275 129° Southeast 214 246 19,000  Level Minneapolis Center
07:41PM 43.6658 -86.2647 130° Southeast 213 245 19,000  Level Minneapolis Center
07:42PM 43.6206 -86.1875 129° Southeast 215 247 19,000  Level Minneapolis Center
07:43PM 43.5822 -86.1219 129° Southeast 219 252 19,000  Level Minneapolis Center
07:44PM 43.5372 -86.0436 128° Southeast 219 252 19,000  Level Chicago Center
07:46PM 43.5097 -85.9694 117° Southeast 218 251 19,000  Level Chicago Center
07:47PM 43.4811 -85.8953 118° Southeast 219 252 19,000  Level Chicago Center
07:48PM 43.4511 -85.8217 119° Southeast 219 252 19,000  Level Chicago Center
07:49PM 43.4217 -85.7481 119° Southeast 220 253 19,000  Level Chicago Center
07:50PM 43.3928 -85.6744 118° Southeast 218 251 19,000  Level Chicago Center
07:51PM 43.3633 -85.6003 119° Southeast 220 253 19,000  Level Chicago Center
07:52PM 43.3275 -85.5111 119° Southeast 220 253 19,000 -120 Level Chicago Center
07:53PM 43.2981 -85.4364 118° Southeast 222 255 18,800 -480 Descending Chicago Center
07:54PM 43.2647 -85.3569 120° Southeast 233 268 18,100 -600 Descending Chicago Center
07:55PM 43.2317 -85.2728 118° Southeast 245 282 17,600 -600 Descending Chicago Center
07:56PM 43.1978 -85.1897 119° Southeast 249 287 16,900 -780 Descending Chicago Center
07:57PM 43.1647 -85.1067 119° Southeast 248 285 16,100 -840 Descending Chicago Center
07:58PM 43.1250 -85.0100 119° Southeast 244 281 15,200 -840 Descending Chicago Center
07:59PM 43.0922 -84.9297 119° Southeast 242 278 14,400 -720 Descending Chicago Center
08:00PM 43.0597 -84.8503 119° Southeast 240 276 13,700 -660 Descending Chicago Center
08:01PM 43.0283 -84.7717 119° Southeast 235 270 13,000 -780 Descending Chicago Center
08:02PM 42.9922 -84.6797 118° Southeast 230 265 12,200 -780 Descending Chicago Center
08:03PM 42.9600 -84.6053 121° Southeast 228 262 11,400 -780 Descending Chicago Center
08:04PM 42.9283 -84.5308 120° Southeast 227 261 10,700 -720 Descending Chicago Center
08:05PM 42.8964 -84.4550 120° Southeast 230 265 10,000 -720 Descending Chicago Center
08:06PM 42.8664 -84.3808 119° Southeast 226 260 9,300 -480 Descending Chicago Center
08:07PM 42.8372 -84.3100 119° Southeast 219 252 9,100 -300 Descending Chicago Center
08:08PM 42.8044 -84.2425 123° Southeast 195 224 8,800 -660 Descending Cleveland Center
08:09PM 42.7775 -84.1703 117° Southeast 220 253 7,900 -780 Descending Cleveland Center
08:10PM 42.7442 -84.0975 122° Southeast 216 249 7,300 -420 Descending Cleveland Center
08:11PM 42.7192 -84.0311 117° Southeast 194 223 7,100 -240 Descending Cleveland Center
08:12PM 42.6961 -83.9678 116° Southeast 186 214 6,900 -540 Descending Cleveland Center
08:13PM 42.6900 -83.8911 96° East 197 227 6,100 -900 Descending Cleveland Center
08:14PM 42.7003 -83.8211 79° East 187 215 5,100 -960 Descending Cleveland Center
08:15PM 42.7064 -83.7506 83° East 190 219 4,200 -900 Descending Cleveland Center
08:16PM 42.7147 -83.6692 82° East 192 221 3,200 -780 Descending Cleveland Center
08:17PM 42.7250 -83.5989 79° East 166 191 2,600 -300 Descending Cleveland Center
08:18PM 42.7328 -83.5428 79° East 144 166 2,600 -60 Level Cleveland Center
08:19PM 42.7464 -83.4981 67° East 138 159 2,500 -120 Descending Cleveland Center
08:21PM 42.7525 -83.5014 338° Northwest 126 145 2,400 -180 Descending Cleveland Center
08:21PM 42.7264 -83.4633 133° Southeast 142 163 2,200 -240 Descending Cleveland Center
08:22PM 42.7003 -83.4253 133° Southeast 121 139 2,000 -240 Descending Cleveland Center
08:24PM 42.6781 -83.3961 136° Southeast 108 124 1,700 -300 Descending Cleveland Center